sensor_id;sensor_type;location;lat;lon;timestamp;temperature;humidity
32147;DHT22;32190;49.112;8.598;2023-05-16T00:01:46;19.40;54.30
32147;DHT22;32190;49.112;8.598;2023-05-16T00:07:36;19.30;54.40
32147;DHT22;32190;49.112;8.598;2023-05-16T00:13:28;19.20;54.50
32147;DHT22;32190;49.112;8.598;2023-05-16T00:19:19;19.10;54.50
32147;DHT22;32190;49.112;8.598;2023-05-16T00:25:09;19.00;54.50
32147;DHT22;32190;49.112;8.598;2023-05-16T00:31:00;18.90;54.60
32147;DHT22;32190;49.112;8.598;2023-05-16T00:36:51;18.80;54.80
32147;DHT22;32190;49.112;8.598;2023-05-16T00:42:42;18.80;55.00
32147;DHT22;32190;49.112;8.598;2023-05-16T00:48:33;18.80;55.10
32147;DHT22;32190;49.112;8.598;2023-05-16T00:54:25;18.70;55.00
32147;DHT22;32190;49.112;8.598;2023-05-16T01:00:18;18.80;55.10
32147;DHT22;32190;49.112;8.598;2023-05-16T01:06:09;18.70;54.90
32147;DHT22;32190;49.112;8.598;2023-05-16T01:12:29;18.70;55.10
32147;DHT22;32190;49.112;8.598;2023-05-16T01:18:35;18.60;55.30
32147;DHT22;32190;49.112;8.598;2023-05-16T01:24:32;18.60;55.40
32147;DHT22;32190;49.112;8.598;2023-05-16T01:30:24;18.60;55.30
32147;DHT22;32190;49.112;8.598;2023-05-16T01:42:13;18.40;55.30
32147;DHT22;32190;49.112;8.598;2023-05-16T01:48:07;18.40;55.50
32147;DHT22;32190;49.112;8.598;2023-05-16T01:54:04;18.30;55.70
32147;DHT22;32190;49.112;8.598;2023-05-16T01:59:57;18.30;56.00
32147;DHT22;32190;49.112;8.598;2023-05-16T02:05:48;18.20;55.80
32147;DHT22;32190;49.112;8.598;2023-05-16T02:11:38;18.20;55.80
32147;DHT22;32190;49.112;8.598;2023-05-16T02:17:29;18.20;55.90
32147;DHT22;32190;49.112;8.598;2023-05-16T02:23:20;18.20;55.90
32147;DHT22;32190;49.112;8.598;2023-05-16T02:29:10;18.20;55.90
32147;DHT22;32190;49.112;8.598;2023-05-16T02:35:01;18.30;56.00
32147;DHT22;32190;49.112;8.598;2023-05-16T02:40:51;18.20;56.00
32147;DHT22;32190;49.112;8.598;2023-05-16T02:46:42;18.20;56.00
32147;DHT22;32190;49.112;8.598;2023-05-16T02:52:33;18.20;56.10
32147;DHT22;32190;49.112;8.598;2023-05-16T02:58:23;18.20;56.10
32147;DHT22;32190;49.112;8.598;2023-05-16T03:04:14;18.20;56.20
32147;DHT22;32190;49.112;8.598;2023-05-16T03:10:05;18.10;56.20
32147;DHT22;32190;49.112;8.598;2023-05-16T03:15:56;18.10;56.40
32147;DHT22;32190;49.112;8.598;2023-05-16T03:21:46;18.00;56.40
32147;DHT22;32190;49.112;8.598;2023-05-16T03:27:37;18.00;56.50
32147;DHT22;32190;49.112;8.598;2023-05-16T03:33:28;17.90;56.50
32147;DHT22;32190;49.112;8.598;2023-05-16T03:39:18;17.90;56.50
32147;DHT22;32190;49.112;8.598;2023-05-16T03:45:10;17.80;56.70
32147;DHT22;32190;49.112;8.598;2023-05-16T03:51:01;17.70;56.80
32147;DHT22;32190;49.112;8.598;2023-05-16T03:56:52;17.70;57.00
32147;DHT22;32190;49.112;8.598;2023-05-16T04:02:42;17.60;57.00
32147;DHT22;32190;49.112;8.598;2023-05-16T04:08:33;17.50;57.00
32147;DHT22;32190;49.112;8.598;2023-05-16T04:14:23;17.50;57.00
32147;DHT22;32190;49.112;8.598;2023-05-16T04:20:14;17.40;57.20
32147;DHT22;32190;49.112;8.598;2023-05-16T04:26:06;17.30;57.40
32147;DHT22;32190;49.112;8.598;2023-05-16T04:31:57;17.10;57.80
32147;DHT22;32190;49.112;8.598;2023-05-16T04:37:47;17.10;57.90
32147;DHT22;32190;49.112;8.598;2023-05-16T04:43:38;17.10;58.00
32147;DHT22;32190;49.112;8.598;2023-05-16T04:49:29;17.10;57.90
32147;DHT22;32190;49.112;8.598;2023-05-16T04:55:20;17.10;57.80
32147;DHT22;32190;49.112;8.598;2023-05-16T05:01:11;17.10;57.90
32147;DHT22;32190;49.112;8.598;2023-05-16T05:07:01;16.90;58.70
32147;DHT22;32190;49.112;8.598;2023-05-16T05:12:52;16.90;58.30
32147;DHT22;32190;49.112;8.598;2023-05-16T05:18:43;16.80;58.40
32147;DHT22;32190;49.112;8.598;2023-05-16T05:24:33;16.90;58.40
32147;DHT22;32190;49.112;8.598;2023-05-16T05:30:24;16.80;58.30
32147;DHT22;32190;49.112;8.598;2023-05-16T05:36:15;16.80;58.30
32147;DHT22;32190;49.112;8.598;2023-05-16T05:42:05;16.80;58.40
32147;DHT22;32190;49.112;8.598;2023-05-16T05:47:56;16.70;58.40
32147;DHT22;32190;49.112;8.598;2023-05-16T05:53:47;16.70;58.60
32147;DHT22;32190;49.112;8.598;2023-05-16T05:59:38;16.70;58.70
32147;DHT22;32190;49.112;8.598;2023-05-16T06:05:28;16.70;58.80
32147;DHT22;32190;49.112;8.598;2023-05-16T06:11:19;16.70;58.80
32147;DHT22;32190;49.112;8.598;2023-05-16T06:17:10;16.70;58.70
32147;DHT22;32190;49.112;8.598;2023-05-16T06:23:01;16.70;58.70
32147;DHT22;32190;49.112;8.598;2023-05-16T06:28:51;16.70;58.80
32147;DHT22;32190;49.112;8.598;2023-05-16T06:34:42;16.70;58.80
32147;DHT22;32190;49.112;8.598;2023-05-16T06:40:33;16.70;58.80
32147;DHT22;32190;49.112;8.598;2023-05-16T06:46:23;16.70;58.90
32147;DHT22;32190;49.112;8.598;2023-05-16T06:52:14;16.70;59.10
32147;DHT22;32190;49.112;8.598;2023-05-16T06:58:05;16.60;59.20
32147;DHT22;32190;49.112;8.598;2023-05-16T07:03:55;16.70;59.30
32147;DHT22;32190;49.112;8.598;2023-05-16T07:09:46;16.70;59.40
32147;DHT22;32190;49.112;8.598;2023-05-16T07:15:36;16.80;59.60
32147;DHT22;32190;49.112;8.598;2023-05-16T07:21:27;16.90;59.60
32147;DHT22;32190;49.112;8.598;2023-05-16T07:27:18;17.10;59.40
32147;DHT22;32190;49.112;8.598;2023-05-16T07:33:09;17.20;59.00
32147;DHT22;32190;49.112;8.598;2023-05-16T07:38:59;17.30;58.70
32147;DHT22;32190;49.112;8.598;2023-05-16T07:44:50;17.40;58.60
32147;DHT22;32190;49.112;8.598;2023-05-16T07:50:42;17.40;58.50
32147;DHT22;32190;49.112;8.598;2023-05-16T07:56:33;17.50;58.40
32147;DHT22;32190;49.112;8.598;2023-05-16T08:02:24;17.60;58.10
32147;DHT22;32190;49.112;8.598;2023-05-16T08:08:18;17.50;57.90
32147;DHT22;32190;49.112;8.598;2023-05-16T08:14:19;17.60;58.00
32147;DHT22;32190;49.112;8.598;2023-05-16T08:20:10;17.50;57.60
32147;DHT22;32190;49.112;8.598;2023-05-16T08:26:01;17.50;57.70
32147;DHT22;32190;49.112;8.598;2023-05-16T08:31:52;17.40;57.70
32147;DHT22;32190;49.112;8.598;2023-05-16T08:37:42;17.40;57.80
32147;DHT22;32190;49.112;8.598;2023-05-16T08:43:33;17.50;57.50
32147;DHT22;32190;49.112;8.598;2023-05-16T08:49:26;17.50;57.40
32147;DHT22;32190;49.112;8.598;2023-05-16T08:55:19;17.40;57.10
32147;DHT22;32190;49.112;8.598;2023-05-16T09:01:10;17.40;56.60
32147;DHT22;32190;49.112;8.598;2023-05-16T09:07:01;17.30;56.60
32147;DHT22;32190;49.112;8.598;2023-05-16T09:12:51;17.20;56.30
32147;DHT22;32190;49.112;8.598;2023-05-16T09:18:44;17.10;56.30
32147;DHT22;32190;49.112;8.598;2023-05-16T09:24:39;17.10;56.20
32147;DHT22;32190;49.112;8.598;2023-05-16T09:30:31;17.10;55.90
32147;DHT22;32190;49.112;8.598;2023-05-16T09:36:24;17.20;55.40
32147;DHT22;32190;49.112;8.598;2023-05-16T09:42:16;17.30;55.00
32147;DHT22;32190;49.112;8.598;2023-05-16T09:48:09;17.40;54.90
32147;DHT22;32190;49.112;8.598;2023-05-16T09:54:06;17.60;54.50
32147;DHT22;32190;49.112;8.598;2023-05-16T09:59:58;17.80;54.50
32147;DHT22;32190;49.112;8.598;2023-05-16T10:05:51;17.90;53.60
32147;DHT22;32190;49.112;8.598;2023-05-16T10:11:42;17.90;53.70
32147;DHT22;32190;49.112;8.598;2023-05-16T10:17:35;17.80;53.40
32147;DHT22;32190;49.112;8.598;2023-05-16T10:23:30;17.80;53.60
32147;DHT22;32190;49.112;8.598;2023-05-16T10:29:22;17.80;53.20
32147;DHT22;32190;49.112;8.598;2023-05-16T10:35:14;17.80;53.30
32147;DHT22;32190;49.112;8.598;2023-05-16T10:41:05;17.80;53.20
32147;DHT22;32190;49.112;8.598;2023-05-16T10:46:57;17.60;53.10
32147;DHT22;32190;49.112;8.598;2023-05-16T10:52:51;17.50;53.30
32147;DHT22;32190;49.112;8.598;2023-05-16T10:58:43;17.20;53.20
32147;DHT22;32190;49.112;8.598;2023-05-16T11:04:54;17.00;53.60
32147;DHT22;32190;49.112;8.598;2023-05-16T11:10:45;16.90;53.60
32147;DHT22;32190;49.112;8.598;2023-05-16T11:16:35;16.80;53.70
32147;DHT22;32190;49.112;8.598;2023-05-16T11:22:28;16.80;53.40
32147;DHT22;32190;49.112;8.598;2023-05-16T11:28:19;16.80;54.00
32147;DHT22;32190;49.112;8.598;2023-05-16T11:34:10;16.70;53.60
32147;DHT22;32190;49.112;8.598;2023-05-16T11:40:06;16.80;53.50
32147;DHT22;32190;49.112;8.598;2023-05-16T11:46:00;16.70;53.40
32147;DHT22;32190;49.112;8.598;2023-05-16T11:51:53;16.80;53.50
32147;DHT22;32190;49.112;8.598;2023-05-16T11:57:43;16.90;53.20
32147;DHT22;32190;49.112;8.598;2023-05-16T12:03:34;16.90;52.90
32147;DHT22;32190;49.112;8.598;2023-05-16T12:09:26;17.00;53.00
32147;DHT22;32190;49.112;8.598;2023-05-16T12:15:17;17.10;52.70
32147;DHT22;32190;49.112;8.598;2023-05-16T12:21:08;17.30;52.40
32147;DHT22;32190;49.112;8.598;2023-05-16T12:26:59;17.30;52.00
32147;DHT22;32190;49.112;8.598;2023-05-16T12:38:46;17.40;51.80
32147;DHT22;32190;49.112;8.598;2023-05-16T12:44:37;17.50;51.20
32147;DHT22;32190;49.112;8.598;2023-05-16T12:50:28;17.50;51.30
32147;DHT22;32190;49.112;8.598;2023-05-16T12:56:18;17.60;51.50
32147;DHT22;32190;49.112;8.598;2023-05-16T13:02:09;17.70;51.60
32147;DHT22;32190;49.112;8.598;2023-05-16T13:08:00;17.70;51.60
32147;DHT22;32190;49.112;8.598;2023-05-16T13:13:52;17.70;51.40
32147;DHT22;32190;49.112;8.598;2023-05-16T13:19:42;17.80;51.50
32147;DHT22;32190;49.112;8.598;2023-05-16T13:25:33;17.80;51.20
32147;DHT22;32190;49.112;8.598;2023-05-16T13:31:24;17.80;50.80
32147;DHT22;32190;49.112;8.598;2023-05-16T13:37:14;17.80;50.40
32147;DHT22;32190;49.112;8.598;2023-05-16T13:43:06;17.80;50.60
32147;DHT22;32190;49.112;8.598;2023-05-16T13:48:56;18.00;50.30
32147;DHT22;32190;49.112;8.598;2023-05-16T13:54:47;18.00;50.30
32147;DHT22;32190;49.112;8.598;2023-05-16T14:00:38;18.20;50.10
32147;DHT22;32190;49.112;8.598;2023-05-16T14:06:28;18.30;49.80
32147;DHT22;32190;49.112;8.598;2023-05-16T14:12:19;18.40;48.60
32147;DHT22;32190;49.112;8.598;2023-05-16T14:18:09;18.30;48.30
32147;DHT22;32190;49.112;8.598;2023-05-16T14:24:00;18.30;47.30
32147;DHT22;32190;49.112;8.598;2023-05-16T14:29:50;18.20;48.00
32147;DHT22;32190;49.112;8.598;2023-05-16T14:35:41;18.20;47.90
32147;DHT22;32190;49.112;8.598;2023-05-16T14:41:32;18.20;47.70
32147;DHT22;32190;49.112;8.598;2023-05-16T14:47:22;18.30;47.20
32147;DHT22;32190;49.112;8.598;2023-05-16T14:53:13;18.20;46.60
32147;DHT22;32190;49.112;8.598;2023-05-16T14:59:04;18.20;45.80
32147;DHT22;32190;49.112;8.598;2023-05-16T15:04:54;18.30;46.00
32147;DHT22;32190;49.112;8.598;2023-05-16T15:10:45;18.40;44.30
32147;DHT22;32190;49.112;8.598;2023-05-16T15:16:36;18.60;44.80
32147;DHT22;32190;49.112;8.598;2023-05-16T15:22:27;18.70;44.50
32147;DHT22;32190;49.112;8.598;2023-05-16T15:28:17;18.90;44.40
32147;DHT22;32190;49.112;8.598;2023-05-16T15:34:08;19.00;43.70
32147;DHT22;32190;49.112;8.598;2023-05-16T15:40:00;19.10;43.50
32147;DHT22;32190;49.112;8.598;2023-05-16T15:45:51;19.20;43.60
32147;DHT22;32190;49.112;8.598;2023-05-16T15:51:41;19.30;42.70
32147;DHT22;32190;49.112;8.598;2023-05-16T15:57:32;19.30;43.00
32147;DHT22;32190;49.112;8.598;2023-05-16T16:03:22;19.40;43.50
32147;DHT22;32190;49.112;8.598;2023-05-16T16:09:13;19.50;43.10
32147;DHT22;32190;49.112;8.598;2023-05-16T16:15:05;19.60;43.30
32147;DHT22;32190;49.112;8.598;2023-05-16T16:20:56;19.50;43.00
32147;DHT22;32190;49.112;8.598;2023-05-16T16:26:46;19.60;42.90
32147;DHT22;32190;49.112;8.598;2023-05-16T16:32:37;19.60;41.90
32147;DHT22;32190;49.112;8.598;2023-05-16T16:38:28;19.70;42.60
32147;DHT22;32190;49.112;8.598;2023-05-16T16:44:18;19.70;40.70
32147;DHT22;32190;49.112;8.598;2023-05-16T16:50:09;19.70;40.30
32147;DHT22;32190;49.112;8.598;2023-05-16T16:56:00;19.70;39.60
32147;DHT22;32190;49.112;8.598;2023-05-16T17:01:50;19.60;39.20
32147;DHT22;32190;49.112;8.598;2023-05-16T17:07:42;19.60;40.00
32147;DHT22;32190;49.112;8.598;2023-05-16T17:13:32;19.70;39.30
32147;DHT22;32190;49.112;8.598;2023-05-16T17:19:23;19.70;39.60
32147;DHT22;32190;49.112;8.598;2023-05-16T17:25:13;19.60;39.30
32147;DHT22;32190;49.112;8.598;2023-05-16T17:31:04;19.70;39.20
32147;DHT22;32190;49.112;8.598;2023-05-16T17:36:55;19.60;39.30
32147;DHT22;32190;49.112;8.598;2023-05-16T17:42:45;19.60;38.80
32147;DHT22;32190;49.112;8.598;2023-05-16T17:48:36;19.50;38.40
32147;DHT22;32190;49.112;8.598;2023-05-16T17:54:26;19.50;38.80
32147;DHT22;32190;49.112;8.598;2023-05-16T18:00:21;19.50;38.60
32147;DHT22;32190;49.112;8.598;2023-05-16T18:06:12;19.50;38.50
32147;DHT22;32190;49.112;8.598;2023-05-16T18:12:02;19.50;38.10
32147;DHT22;32190;49.112;8.598;2023-05-16T18:17:53;19.40;38.10
32147;DHT22;32190;49.112;8.598;2023-05-16T18:23:44;19.30;37.40
32147;DHT22;32190;49.112;8.598;2023-05-16T18:29:35;19.30;38.20
32147;DHT22;32190;49.112;8.598;2023-05-16T18:35:25;19.20;36.90
32147;DHT22;32190;49.112;8.598;2023-05-16T18:41:17;19.10;37.50
32147;DHT22;32190;49.112;8.598;2023-05-16T18:47:08;19.00;37.80
32147;DHT22;32190;49.112;8.598;2023-05-16T18:52:59;19.00;38.20
32147;DHT22;32190;49.112;8.598;2023-05-16T18:58:50;19.00;38.60
32147;DHT22;32190;49.112;8.598;2023-05-16T19:04:41;19.10;39.00
32147;DHT22;32190;49.112;8.598;2023-05-16T19:10:31;19.10;39.20
32147;DHT22;32190;49.112;8.598;2023-05-16T19:16:27;19.20;40.00
32147;DHT22;32190;49.112;8.598;2023-05-16T19:22:17;19.20;39.90
32147;DHT22;32190;49.112;8.598;2023-05-16T19:28:08;19.20;40.20
32147;DHT22;32190;49.112;8.598;2023-05-16T19:33:58;19.20;39.80
32147;DHT22;32190;49.112;8.598;2023-05-16T19:39:49;19.20;40.60
32147;DHT22;32190;49.112;8.598;2023-05-16T19:45:39;19.20;40.70
32147;DHT22;32190;49.112;8.598;2023-05-16T19:51:30;19.20;41.00
32147;DHT22;32190;49.112;8.598;2023-05-16T19:57:21;19.20;41.20
32147;DHT22;32190;49.112;8.598;2023-05-16T20:03:11;19.30;41.40
32147;DHT22;32190;49.112;8.598;2023-05-16T20:09:02;19.30;41.50
32147;DHT22;32190;49.112;8.598;2023-05-16T20:14:52;19.20;41.80
32147;DHT22;32190;49.112;8.598;2023-05-16T20:20:43;19.20;41.80
32147;DHT22;32190;49.112;8.598;2023-05-16T20:26:34;19.10;42.00
32147;DHT22;32190;49.112;8.598;2023-05-16T20:32:24;19.00;42.00
32147;DHT22;32190;49.112;8.598;2023-05-16T20:38:15;18.90;42.00
32147;DHT22;32190;49.112;8.598;2023-05-16T20:44:06;18.80;42.20
32147;DHT22;32190;49.112;8.598;2023-05-16T20:49:56;18.60;42.10
32147;DHT22;32190;49.112;8.598;2023-05-16T20:55:47;18.40;42.50
32147;DHT22;32190;49.112;8.598;2023-05-16T21:01:37;18.30;43.00
32147;DHT22;32190;49.112;8.598;2023-05-16T21:07:28;18.10;43.30
32147;DHT22;32190;49.112;8.598;2023-05-16T21:13:18;17.90;43.60
32147;DHT22;32190;49.112;8.598;2023-05-16T21:19:10;17.90;44.00
32147;DHT22;32190;49.112;8.598;2023-05-16T21:25:00;17.90;44.10
32147;DHT22;32190;49.112;8.598;2023-05-16T21:30:51;17.90;44.10
32147;DHT22;32190;49.112;8.598;2023-05-16T21:36:41;17.90;44.20
32147;DHT22;32190;49.112;8.598;2023-05-16T21:42:32;17.90;44.40
32147;DHT22;32190;49.112;8.598;2023-05-16T21:48:22;17.90;44.30
32147;DHT22;32190;49.112;8.598;2023-05-16T21:54:13;17.80;44.40
32147;DHT22;32190;49.112;8.598;2023-05-16T22:00:04;17.80;44.50
32147;DHT22;32190;49.112;8.598;2023-05-16T22:05:58;17.70;44.60
32147;DHT22;32190;49.112;8.598;2023-05-16T22:11:49;17.60;44.70
32147;DHT22;32190;49.112;8.598;2023-05-16T22:17:39;17.60;44.60
32147;DHT22;32190;49.112;8.598;2023-05-16T22:23:30;17.60;44.60
32147;DHT22;32190;49.112;8.598;2023-05-16T22:29:21;17.50;44.30
32147;DHT22;32190;49.112;8.598;2023-05-16T22:35:12;17.40;44.40
32147;DHT22;32190;49.112;8.598;2023-05-16T22:41:03;17.30;44.40
32147;DHT22;32190;49.112;8.598;2023-05-16T22:46:54;17.20;44.70
32147;DHT22;32190;49.112;8.598;2023-05-16T22:52:44;17.10;44.60
32147;DHT22;32190;49.112;8.598;2023-05-16T22:58:35;17.10;44.80
32147;DHT22;32190;49.112;8.598;2023-05-16T23:04:25;17.10;45.00
32147;DHT22;32190;49.112;8.598;2023-05-16T23:10:16;17.00;44.70
32147;DHT22;32190;49.112;8.598;2023-05-16T23:16:06;17.00;44.40
32147;DHT22;32190;49.112;8.598;2023-05-16T23:21:57;16.90;44.70
32147;DHT22;32190;49.112;8.598;2023-05-16T23:27:48;16.80;45.00
32147;DHT22;32190;49.112;8.598;2023-05-16T23:33:38;16.80;45.20
32147;DHT22;32190;49.112;8.598;2023-05-16T23:39:29;16.80;45.30
32147;DHT22;32190;49.112;8.598;2023-05-16T23:45:20;16.80;45.40
32147;DHT22;32190;49.112;8.598;2023-05-16T23:51:10;16.70;45.40
32147;DHT22;32190;49.112;8.598;2023-05-16T23:57:01;16.70;45.30
